createdAt,value
2018-12-03T00:01:07.217Z,44.87
2018-12-03T00:06:01.801Z,42.70
2018-12-03T00:10:56.377Z,40.97
2018-12-03T00:15:50.910Z,40.83
2018-12-03T00:20:45.701Z,40.73
2018-12-03T00:25:40.256Z,41.90
2018-12-03T00:30:34.804Z,41.57
2018-12-03T00:35:29.352Z,42.37
2018-12-03T00:40:23.888Z,41.23
2018-12-03T00:45:18.417Z,40.30
2018-12-03T00:50:12.956Z,41.77
2018-12-03T00:55:08.296Z,43.50
2018-12-03T01:00:02.982Z,41.50
2018-12-03T01:04:57.603Z,42.47
2018-12-03T01:09:52.239Z,44.67
2018-12-03T01:14:46.845Z,43.73
2018-12-03T01:19:41.397Z,41.37
2018-12-03T01:24:35.965Z,42.10
2018-12-03T01:29:30.465Z,37.47
2018-12-03T01:34:25.091Z,38.67
2018-12-03T01:39:19.632Z,36.80
2018-12-03T01:44:14.166Z,37.47
2018-12-03T01:49:08.737Z,37.63
2018-12-03T01:54:03.289Z,38.40
2018-12-03T01:58:57.845Z,38.80
2018-12-03T02:03:52.377Z,41.20
2018-12-03T02:08:46.922Z,39.87
2018-12-03T02:13:41.449Z,37.57
2018-12-03T02:18:36.056Z,38.87
2018-12-03T02:23:30.577Z,39.07
2018-12-03T02:28:25.264Z,38.47
2018-12-03T02:33:19.805Z,36.53
2018-12-03T02:38:14.410Z,37.77
2018-12-03T02:43:08.949Z,37.23
2018-12-03T02:48:03.477Z,37.00
2018-12-03T02:52:58.029Z,35.73
2018-12-03T02:57:52.569Z,37.90
2018-12-03T03:02:47.126Z,38.23
2018-12-03T03:07:41.752Z,37.17
2018-12-03T03:12:36.297Z,38.27
2018-12-03T03:17:30.817Z,37.50
2018-12-03T03:22:25.522Z,37.20
2018-12-03T03:27:20.024Z,35.60
2018-12-03T03:32:14.573Z,35.13
2018-12-03T03:37:09.092Z,35.27
2018-12-03T03:42:03.731Z,35.27
2018-12-03T03:46:58.269Z,37.07
2018-12-03T03:51:52.812Z,36.67
2018-12-03T03:56:47.318Z,34.37
2018-12-03T04:01:41.970Z,34.93
2018-12-03T04:06:36.584Z,33.87
2018-12-03T04:11:31.130Z,33.60
2018-12-03T04:16:25.672Z,34.23
2018-12-03T04:21:20.213Z,34.30
2018-12-03T04:26:14.949Z,33.70
2018-12-03T04:31:09.721Z,34.40
2018-12-03T04:36:04.288Z,33.87
2018-12-03T04:41:05.242Z,33.67
2018-12-03T04:45:59.779Z,35.17
2018-12-03T04:50:54.305Z,33.90
2018-12-03T04:55:48.837Z,33.27
2018-12-03T05:00:43.348Z,33.13
2018-12-03T05:05:37.875Z,32.50
2018-12-03T05:10:32.424Z,32.07
2018-12-03T05:15:27.029Z,34.17
2018-12-03T05:20:22.947Z,33.00
2018-12-03T05:25:19.458Z,33.00
2018-12-03T05:30:14.132Z,31.90
2018-12-03T05:35:12.860Z,30.33
2018-12-03T05:40:10.811Z,30.40
2018-12-03T05:45:06.148Z,33.43
2018-12-03T05:50:00.693Z,31.83
2018-12-03T05:54:55.249Z,29.33
2018-12-03T05:59:49.781Z,27.97
2018-12-03T06:04:44.365Z,26.83
2018-12-03T06:09:39.136Z,27.77
2018-12-03T06:14:33.740Z,27.67
2018-12-03T06:19:28.448Z,28.53
2018-12-03T06:24:23.496Z,28.07
2018-12-03T06:29:18.152Z,29.80
2018-12-03T06:34:13.665Z,29.87
2018-12-03T06:39:10.021Z,29.37
2018-12-03T06:44:04.787Z,31.97
2018-12-03T06:48:59.391Z,32.37
2018-12-03T06:53:54.027Z,30.70
2018-12-03T06:58:48.645Z,31.77
2018-12-03T07:03:43.243Z,40.03
2018-12-03T07:08:37.849Z,64.90
2018-12-03T07:13:32.482Z,42.50
2018-12-03T07:18:27.407Z,33.13
2018-12-03T07:23:22.077Z,31.57
2018-12-03T07:28:16.713Z,30.47
2018-12-03T07:33:11.378Z,31.37
2018-12-03T07:38:06.153Z,31.63
2018-12-03T07:43:00.817Z,30.27
2018-12-03T07:47:55.474Z,32.17
2018-12-03T07:52:50.150Z,34.13
2018-12-03T07:57:48.363Z,31.87
2018-12-03T08:02:43.011Z,30.43
2018-12-03T08:07:37.642Z,30.37
2018-12-03T08:12:32.303Z,33.13
2018-12-03T08:17:27.489Z,31.93
2018-12-03T08:22:22.130Z,32.50
2018-12-03T08:27:16.765Z,29.57
2018-12-03T08:32:11.364Z,31.07
2018-12-03T08:37:06.135Z,31.57
2018-12-03T08:42:00.779Z,26.97
2018-12-03T08:46:55.369Z,28.00
2018-12-03T08:51:49.988Z,27.23
2018-12-03T08:56:46.791Z,25.20
2018-12-03T09:01:41.368Z,24.30
2018-12-03T09:06:35.961Z,23.70
2018-12-03T09:11:30.584Z,23.57
2018-12-03T09:16:25.236Z,25.93
2018-12-03T09:21:20.025Z,23.40
2018-12-03T09:26:15.480Z,23.43
2018-12-03T09:31:10.675Z,28.47
2018-12-03T09:36:05.905Z,27.07
2018-12-03T09:41:01.347Z,26.53
2018-12-03T09:45:56.011Z,26.60
2018-12-03T09:50:50.708Z,26.37
2018-12-03T09:55:45.335Z,25.63
2018-12-03T10:00:40.038Z,26.73
2018-12-03T10:06:12.898Z,24.20
2018-12-03T10:11:07.575Z,23.40
2018-12-03T10:16:02.212Z,19.97
2018-12-03T10:20:58.457Z,17.07
2018-12-03T10:25:56.031Z,20.33
2018-12-03T10:30:51.657Z,18.03
2018-12-03T10:35:46.306Z,16.30
2018-12-03T10:40:43.015Z,13.43
2018-12-03T10:45:37.719Z,12.87
2018-12-03T10:50:32.505Z,12.93
2018-12-03T10:55:27.319Z,12.93
2018-12-03T11:00:27.139Z,11.60
2018-12-03T11:05:29.399Z,12.70
2018-12-03T11:10:26.071Z,10.93
2018-12-03T11:15:21.877Z,10.90
2018-12-03T11:20:16.531Z,11.07
2018-12-03T11:25:13.661Z,11.10
2018-12-03T11:30:11.203Z,12.57
2018-12-03T11:35:08.300Z,10.73
2018-12-03T11:40:24.801Z,10.73
2018-12-03T11:45:19.463Z,8.37
2018-12-03T11:50:14.279Z,7.50
2018-12-03T11:55:09.554Z,7.50
2018-12-03T12:00:04.826Z,8.27
2018-12-03T12:04:59.467Z,8.03
2018-12-03T12:09:54.094Z,6.90
2018-12-03T12:14:50.771Z,6.70
2018-12-03T12:19:45.410Z,8.80
2018-12-03T12:24:40.039Z,9.90
2018-12-03T12:29:34.792Z,12.27
2018-12-03T12:34:29.498Z,6.70
2018-12-03T12:39:24.119Z,6.83
2018-12-03T12:44:18.772Z,5.77
2018-12-03T12:49:14.626Z,5.60
2018-12-03T12:54:09.302Z,5.67
2018-12-03T12:59:04.353Z,5.97
2018-12-03T13:03:59.025Z,6.20
2018-12-03T13:08:53.686Z,5.30
2018-12-03T13:13:48.355Z,6.37
2018-12-03T13:18:42.986Z,5.97
2018-12-03T13:23:38.176Z,6.20
2018-12-03T13:28:33.738Z,6.60
2018-12-03T13:33:28.806Z,5.30
2018-12-03T13:38:23.438Z,4.70
2018-12-03T13:43:18.285Z,5.00
2018-12-03T13:48:12.925Z,5.10
2018-12-03T13:53:08.275Z,5.80
2018-12-03T13:58:03.634Z,8.10
2018-12-03T14:03:02.493Z,12.40
2018-12-03T14:09:02.310Z,9.50
2018-12-03T14:14:12.365Z,8.43
2018-12-03T14:19:12.655Z,7.67
2018-12-03T14:24:17.257Z,6.70
2018-12-03T14:29:11.837Z,5.70
2018-12-03T14:34:06.526Z,6.80
2018-12-03T14:39:01.143Z,9.10
2018-12-03T14:43:55.810Z,7.87
2018-12-03T14:48:50.454Z,8.53
2018-12-03T14:53:45.088Z,7.93
2018-12-03T14:58:39.717Z,7.80
2018-12-03T15:03:34.355Z,9.57
2018-12-03T15:08:28.978Z,10.70
2018-12-03T15:13:23.632Z,10.30
2018-12-03T15:18:18.394Z,11.37
2018-12-03T15:23:13.047Z,11.00
2018-12-03T15:28:07.716Z,11.63
2018-12-03T15:33:02.361Z,12.73
2018-12-03T15:37:57.063Z,13.23
2018-12-03T15:42:51.691Z,10.83
2018-12-03T15:47:46.326Z,71.20
2018-12-03T15:52:41.004Z,17.00
2018-12-03T15:57:35.634Z,16.97
2018-12-03T16:02:30.403Z,16.67
2018-12-03T16:07:25.037Z,19.23
2018-12-03T16:12:19.714Z,18.60
2018-12-03T16:17:14.443Z,15.87
2018-12-03T16:22:09.133Z,15.07
2018-12-03T16:27:03.801Z,18.17
2018-12-03T16:31:58.593Z,18.50
2018-12-03T16:36:53.898Z,17.83
2018-12-03T16:41:48.679Z,15.70
2018-12-03T16:46:43.479Z,17.53
2018-12-03T16:51:38.520Z,17.23
2018-12-03T16:56:33.149Z,17.20
2018-12-03T17:01:27.860Z,17.60
2018-12-03T17:06:22.513Z,19.20
2018-12-03T17:11:17.155Z,18.87
2018-12-03T17:16:11.847Z,24.13
2018-12-03T17:21:17.034Z,29.73
2018-12-03T17:26:11.745Z,26.70
2018-12-03T17:31:06.418Z,28.03
2018-12-03T17:36:01.206Z,27.63
2018-12-03T17:40:55.902Z,23.57
2018-12-03T17:45:50.626Z,37.67
2018-12-03T17:50:45.467Z,32.80
2018-12-03T17:55:40.144Z,22.10
2018-12-03T18:00:37.034Z,30.87
2018-12-03T18:05:31.776Z,23.03
2018-12-03T18:10:26.475Z,18.17
2018-12-03T18:15:21.151Z,32.20
2018-12-03T18:20:15.832Z,74.23
2018-12-03T18:25:10.519Z,53.47
2018-12-03T18:30:07.463Z,30.47
2018-12-03T18:35:02.553Z,24.03
2018-12-03T18:39:57.932Z,42.80
2018-12-03T18:44:52.718Z,44.63
2018-12-03T18:49:49.351Z,37.70
2018-12-03T18:54:44.231Z,31.20
2018-12-03T18:59:39.106Z,27.10
2018-12-03T19:04:33.847Z,29.93
2018-12-03T19:09:28.546Z,38.43
2018-12-03T19:14:23.456Z,28.53
2018-12-03T19:19:18.630Z,28.17
2018-12-03T19:24:13.520Z,30.70
2018-12-03T19:29:09.442Z,37.13
2018-12-03T19:34:08.891Z,36.47
2018-12-03T19:39:09.130Z,32.87
2018-12-03T19:44:09.673Z,29.87
2018-12-03T19:49:09.203Z,37.90
2018-12-03T19:54:08.927Z,32.17
2018-12-03T19:59:09.353Z,32.03
2018-12-03T20:04:52.720Z,31.43
2018-12-03T20:09:48.228Z,33.10
2018-12-03T20:14:42.938Z,31.97
2018-12-03T20:19:37.900Z,34.90
2018-12-03T20:24:32.740Z,36.17
2018-12-03T20:29:33.273Z,28.40
2018-12-03T20:34:45.304Z,31.57
2018-12-03T20:40:53.598Z,30.70
2018-12-03T20:48:08.633Z,31.93
2018-12-03T20:53:03.340Z,25.90
2018-12-03T20:57:57.950Z,27.43
2018-12-03T21:02:56.210Z,29.87
2018-12-03T21:07:50.876Z,29.50
2018-12-03T21:12:46.384Z,41.07
2018-12-03T21:17:42.907Z,41.93
2018-12-03T21:22:38.026Z,34.57
2018-12-03T21:27:32.719Z,37.30
2018-12-03T21:32:27.422Z,68.83
2018-12-03T21:37:26.009Z,71.97
2018-12-03T21:42:21.595Z,46.33
2018-12-03T21:47:16.512Z,29.83
2018-12-03T21:52:11.148Z,28.40
2018-12-03T21:57:10.744Z,34.73
2018-12-03T22:02:02.627Z,32.23
2018-12-03T22:06:57.290Z,29.23
2018-12-03T22:11:51.917Z,28.20
2018-12-03T22:16:46.528Z,46.07
2018-12-03T22:21:41.159Z,32.53
2018-12-03T22:26:35.777Z,42.70
2018-12-03T22:31:30.394Z,49.17
2018-12-03T22:36:25.037Z,41.27
2018-12-03T22:41:19.686Z,36.97
2018-12-03T22:46:14.324Z,40.67
2018-12-03T22:51:09.996Z,35.77
2018-12-03T22:56:04.648Z,30.80
2018-12-03T23:01:06.980Z,28.63
2018-12-03T23:06:01.617Z,27.57
2018-12-03T23:10:56.382Z,27.50
2018-12-03T23:15:50.966Z,24.33
2018-12-03T23:20:45.658Z,28.17
2018-12-03T23:25:40.267Z,27.50
2018-12-03T23:30:34.886Z,27.23
2018-12-03T23:35:29.586Z,26.33
2018-12-03T23:40:24.187Z,24.27
2018-12-03T23:45:18.810Z,26.73
2018-12-03T23:50:13.566Z,26.53
2018-12-03T23:55:08.213Z,25.07
